Time;durP1;ratioP1;P1;durP2;ratioP2;P2;SDS_P1;SDS_P2;PMS_P1;PMS_P2;Temp;Humidity;BMP_temperature;BMP_pressure;BME280_temperature;BME280_humidity;BME280_pressure;Samples;Min_cycle;Max_cycle;Signal;HPM_P1;HPM_P2
2021/11/05 00:00:38;;;;;;;92.40;32.30;;;;;;;;;;5030864;28;20022;-70
2021/11/05 00:03:03;;;;;;;69.25;25.58;;;;;;;;;;5030274;28;20075;-68
2021/11/05 00:05:29;;;;;;;82.15;28.60;;;;;;;;;;5031435;28;20067;-69
2021/11/05 00:07:54;;;;;;;80.13;29.60;;;;;;;;;;5030949;28;20386;-69
2021/11/05 00:10:20;;;;;;;80.03;28.95;;;;;;;;;;5030768;28;20033;-69
2021/11/05 00:12:45;;;;;;;80.32;29.95;;;;;;;;;;5029861;28;20037;-69
2021/11/05 00:15:11;;;;;;;76.93;29.80;;;;;;;;;;5030743;28;20067;-69
2021/11/05 00:17:37;;;;;;;72.22;26.60;;;;;;;;;;5031065;28;20036;-69
2021/11/05 00:20:03;;;;;;;79.10;29.52;;;;;;;;;;5030181;28;20104;-68
2021/11/05 00:22:28;;;;;;;85.75;31.85;;;;;;;;;;5030381;28;20040;-69
2021/11/05 00:24:53;;;;;;;84.03;31.38;;;;;;;;;;5030714;28;20017;-69
2021/11/05 00:27:18;;;;;;;85.17;31.17;;;;;;;;;;5030877;28;20025;-70
2021/11/05 00:29:44;;;;;;;90.75;33.50;;;;;;;;;;5030893;28;20359;-69
2021/11/05 00:32:10;;;;;;;86.30;33.03;;;;;;;;;;5029337;28;20037;-69
2021/11/05 00:34:36;;;;;;;91.03;34.17;;;;;;;;;;5030930;28;20018;-69
2021/11/05 00:37:01;;;;;;;91.50;31.88;;;;;;;;;;5030023;28;20477;-69
2021/11/05 00:39:26;;;;;;;95.40;34.47;;;;;;;;;;5030789;28;20021;-69
2021/11/05 00:41:51;;;;;;;89.97;33.45;;;;;;;;;;5028367;28;20076;-69
2021/11/05 00:44:17;;;;;;;72.00;27.50;;;;;;;;;;5030109;28;20025;-69
2021/11/05 00:46:42;;;;;;;83.97;33.05;;;;;;;;;;5029850;28;20026;-68
2021/11/05 00:49:07;;;;;;;82.50;33.17;;;;;;;;;;5030640;28;20021;-69
2021/11/05 00:51:32;;;;;;;91.75;34.83;;;;;;;;;;5030455;28;20448;-68
2021/11/05 00:56:25;;;;;;;98.13;35.00;;;;;;;;;;5027859;28;20064;-65
2021/11/05 00:58:51;;;;;;;107.65;34.90;;;;;;;;;;5028104;28;20029;-63
2021/11/05 01:01:16;;;;;;;105.43;36.58;;;;;;;;;;5029531;28;20441;-63
2021/11/05 01:03:41;;;;;;;104.85;35.70;;;;;;;;;;5029695;28;20024;-62
2021/11/05 01:06:06;;;;;;;93.82;31.15;;;;;;;;;;5029345;28;20079;-63
2021/11/05 01:08:31;;;;;;;94.65;32.35;;;;;;;;;;5029952;28;20029;-68
2021/11/05 01:10:57;;;;;;;91.00;34.03;;;;;;;;;;5026972;28;20563;-66
2021/11/05 01:13:22;;;;;;;90.00;32.90;;;;;;;;;;5024257;28;20267;-67
2021/11/05 01:15:47;;;;;;;99.50;36.03;;;;;;;;;;5027130;28;20719;-65
2021/11/05 01:18:12;;;;;;;98.38;34.10;;;;;;;;;;5027855;28;20470;-66
2021/11/05 01:20:39;;;;;;;102.15;35.22;;;;;;;;;;5028237;28;20087;-64
2021/11/05 01:23:04;;;;;;;101.75;35.83;;;;;;;;;;5027303;28;20036;-65
2021/11/05 01:25:29;;;;;;;99.85;34.45;;;;;;;;;;5027891;28;20029;-62
2021/11/05 01:27:55;;;;;;;99.10;35.45;;;;;;;;;;5027291;28;20108;-64
2021/11/05 01:30:20;;;;;;;107.03;35.47;;;;;;;;;;5025969;28;20065;-63
2021/11/05 01:32:46;;;;;;;95.38;32.58;;;;;;;;;;5027438;28;20060;-63
2021/11/05 01:35:12;;;;;;;91.13;33.72;;;;;;;;;;5027400;28;20041;-64
2021/11/05 01:37:37;;;;;;;103.03;34.22;;;;;;;;;;5027899;28;20116;-63
2021/11/05 01:40:03;;;;;;;100.90;34.33;;;;;;;;;;5027828;28;20030;-63
2021/11/05 01:42:28;;;;;;;98.43;34.78;;;;;;;;;;5027454;28;20268;-65
2021/11/05 01:44:53;;;;;;;96.07;34.65;;;;;;;;;;5027602;28;20053;-64
2021/11/05 01:47:18;;;;;;;98.50;35.58;;;;;;;;;;5027729;28;20025;-63
2021/11/05 01:49:44;;;;;;;99.75;35.60;;;;;;;;;;5024583;28;20018;-62
2021/11/05 01:52:10;;;;;;;101.95;35.42;;;;;;;;;;5025581;28;20109;-63
2021/11/05 01:54:35;;;;;;;96.10;34.92;;;;;;;;;;5029675;28;20096;-63
2021/11/05 01:57:00;;;;;;;96.68;35.25;;;;;;;;;;5030603;28;20531;-63
2021/11/05 01:59:27;;;;;;;115.45;37.22;;;;;;;;;;5032058;28;20082;-63
2021/11/05 02:01:53;;;;;;;108.50;35.80;;;;;;;;;;5032227;28;20052;-63
2021/11/05 02:04:18;;;;;;;113.25;37.17;;;;;;;;;;5031378;28;20060;-64
2021/11/05 02:06:44;;;;;;;96.75;35.42;;;;;;;;;;5028933;28;20056;-63
2021/11/05 02:09:11;;;;;;;106.13;35.90;;;;;;;;;;5030447;28;20049;-62
2021/11/05 02:11:36;;;;;;;108.40;36.22;;;;;;;;;;5029886;28;20025;-67
2021/11/05 02:14:02;;;;;;;110.72;37.28;;;;;;;;;;5029680;28;20083;-63
2021/11/05 02:16:28;;;;;;;105.82;36.53;;;;;;;;;;5030893;28;20032;-62
2021/11/05 02:18:54;;;;;;;116.63;37.17;;;;;;;;;;5030775;28;20029;-63
2021/11/05 02:21:21;;;;;;;105.05;36.10;;;;;;;;;;5030059;28;20029;-62
2021/11/05 02:23:46;;;;;;;104.45;38.05;;;;;;;;;;5031405;28;20021;-65
2021/11/05 02:26:11;;;;;;;113.00;38.17;;;;;;;;;;5032707;28;20409;-63
2021/11/05 02:28:38;;;;;;;98.82;34.15;;;;;;;;;;5032814;28;20393;-64
2021/11/05 02:31:03;;;;;;;115.90;37.15;;;;;;;;;;5031926;28;20099;-62
2021/11/05 02:33:29;;;;;;;112.03;38.35;;;;;;;;;;5032250;28;20432;-65
2021/11/05 02:35:54;;;;;;;118.47;40.50;;;;;;;;;;5032901;28;20022;-63
2021/11/05 02:38:19;;;;;;;105.20;35.97;;;;;;;;;;5031583;28;20116;-63
2021/11/05 02:40:44;;;;;;;106.78;37.67;;;;;;;;;;5031383;28;20103;-64
2021/11/05 02:43:10;;;;;;;111.75;37.33;;;;;;;;;;5032009;28;20060;-64
2021/11/05 02:45:35;;;;;;;111.75;37.60;;;;;;;;;;5032988;28;20040;-63
2021/11/05 02:48:00;;;;;;;125.82;39.15;;;;;;;;;;5032596;28;20025;-63
2021/11/05 02:50:25;;;;;;;145.90;43.80;;;;;;;;;;5032464;28;20040;-63
2021/11/05 02:52:51;;;;;;;153.65;46.15;;;;;;;;;;5029607;28;20021;-63
2021/11/05 02:55:16;;;;;;;175.52;50.35;;;;;;;;;;5020688;28;20030;-65
2021/11/05 02:57:41;;;;;;;158.15;50.10;;;;;;;;;;5024948;28;20060;-63
2021/11/05 03:00:08;;;;;;;165.90;50.13;;;;;;;;;;5034735;28;20028;-64
2021/11/05 03:02:33;;;;;;;172.10;52.22;;;;;;;;;;5031793;28;20049;-64
2021/11/05 03:04:58;;;;;;;186.32;52.50;;;;;;;;;;5032327;28;20064;-66
2021/11/05 03:07:23;;;;;;;172.90;50.45;;;;;;;;;;5031623;28;20037;-63
2021/11/05 03:09:49;;;;;;;171.98;51.22;;;;;;;;;;5031146;28;20037;-65
2021/11/05 03:12:14;;;;;;;209.38;56.42;;;;;;;;;;5032758;28;20017;-64
2021/11/05 03:14:40;;;;;;;194.10;51.88;;;;;;;;;;5031680;28;20030;-63
2021/11/05 03:17:05;;;;;;;195.55;54.05;;;;;;;;;;5031480;28;20485;-64
2021/11/05 03:19:31;;;;;;;196.18;55.20;;;;;;;;;;5031888;28;20026;-64
2021/11/05 03:21:57;;;;;;;205.73;56.92;;;;;;;;;;5030972;28;20025;-64
2021/11/05 03:24:23;;;;;;;204.35;54.72;;;;;;;;;;5031269;28;20503;-64
2021/11/05 03:26:49;;;;;;;209.88;57.25;;;;;;;;;;5031758;28;20029;-64
2021/11/05 03:29:14;;;;;;;205.18;56.75;;;;;;;;;;5030904;28;20027;-65
2021/11/05 03:31:39;;;;;;;203.52;57.65;;;;;;;;;;5031553;28;20056;-64
2021/11/05 03:34:05;;;;;;;197.30;54.70;;;;;;;;;;5030008;28;20032;-65
2021/11/05 03:36:30;;;;;;;221.48;58.42;;;;;;;;;;5031124;28;20411;-63
2021/11/05 03:38:55;;;;;;;198.05;53.45;;;;;;;;;;5031388;28;20462;-65
2021/11/05 03:41:21;;;;;;;208.10;55.17;;;;;;;;;;5027703;28;20466;-63
2021/11/05 03:43:46;;;;;;;197.80;54.67;;;;;;;;;;5029425;28;20017;-63
2021/11/05 03:46:12;;;;;;;182.98;52.28;;;;;;;;;;5030012;28;20462;-66
2021/11/05 03:48:40;;;;;;;182.68;51.88;;;;;;;;;;5030604;28;20088;-63
2021/11/05 03:51:06;;;;;;;203.95;52.08;;;;;;;;;;5030731;28;20393;-63
2021/11/05 03:53:31;;;;;;;175.98;49.38;;;;;;;;;;5030483;28;20031;-63
2021/11/05 03:55:56;;;;;;;185.98;50.67;;;;;;;;;;5030645;28;20017;-64
2021/11/05 03:58:22;;;;;;;173.75;48.05;;;;;;;;;;5028580;28;20083;-65
2021/11/05 04:00:47;;;;;;;181.32;47.40;;;;;;;;;;5030183;28;20060;-65
2021/11/05 04:03:12;;;;;;;167.05;45.47;;;;;;;;;;5030218;28;20025;-64
2021/11/05 04:05:37;;;;;;;152.68;45.60;;;;;;;;;;5030333;28;20029;-65
2021/11/05 04:08:03;;;;;;;149.70;44.65;;;;;;;;;;5030435;28;20032;-64
2021/11/05 04:10:28;;;;;;;163.73;44.13;;;;;;;;;;5029959;28;20055;-64
2021/11/05 04:12:53;;;;;;;167.50;45.45;;;;;;;;;;5029978;28;20052;-63
2021/11/05 04:15:19;;;;;;;146.65;45.13;;;;;;;;;;5029547;28;20100;-63
2021/11/05 04:17:44;;;;;;;151.80;45.40;;;;;;;;;;5029910;28;20061;-63
2021/11/05 04:20:10;;;;;;;139.80;39.50;;;;;;;;;;5029380;28;20728;-65
2021/11/05 04:22:35;;;;;;;153.90;43.60;;;;;;;;;;5031129;28;20017;-63
2021/11/05 04:25:00;;;;;;;152.75;45.22;;;;;;;;;;5031021;28;20066;-64
2021/11/05 04:27:26;;;;;;;138.52;40.38;;;;;;;;;;5029220;28;20029;-63
2021/11/05 04:29:51;;;;;;;133.20;40.60;;;;;;;;;;5028341;28;20390;-63
2021/11/05 04:32:16;;;;;;;132.88;43.78;;;;;;;;;;5029718;28;20033;-63
2021/11/05 04:34:42;;;;;;;136.68;44.13;;;;;;;;;;5029248;28;20021;-66
2021/11/05 04:37:07;;;;;;;119.00;39.88;;;;;;;;;;5029187;28;20026;-65
2021/11/05 04:39:32;;;;;;;126.35;41.10;;;;;;;;;;5028348;28;20022;-65
2021/11/05 04:41:58;;;;;;;120.50;38.97;;;;;;;;;;5029130;28;20454;-63
2021/11/05 04:44:23;;;;;;;127.40;37.25;;;;;;;;;;5029647;28;20013;-64
2021/11/05 04:46:48;;;;;;;117.15;37.90;;;;;;;;;;5029825;28;20429;-63
2021/11/05 04:49:14;;;;;;;121.72;38.72;;;;;;;;;;5029839;28;20108;-64
2021/11/05 04:51:39;;;;;;;113.25;38.88;;;;;;;;;;5030502;28;20035;-64
2021/11/05 04:54:06;;;;;;;112.38;35.35;;;;;;;;;;5029145;28;20489;-64
2021/11/05 04:56:31;;;;;;;104.47;34.72;;;;;;;;;;5029783;28;20083;-63
2021/11/05 04:58:56;;;;;;;111.63;39.25;;;;;;;;;;5029730;28;20026;-64
2021/11/05 05:01:22;;;;;;;111.20;37.40;;;;;;;;;;5030311;28;20029;-63
2021/11/05 05:03:47;;;;;;;129.10;41.03;;;;;;;;;;5027851;28;20018;-63
2021/11/05 05:06:12;;;;;;;111.72;34.63;;;;;;;;;;5030034;28;20416;-65
2021/11/05 05:08:39;;;;;;;124.18;36.97;;;;;;;;;;5029840;28;20021;-63
2021/11/05 05:11:04;;;;;;;118.20;35.72;;;;;;;;;;5029946;28;20021;-63
2021/11/05 05:13:29;;;;;;;117.75;34.72;;;;;;;;;;5029874;28;20558;-63
2021/11/05 05:15:54;;;;;;;130.23;38.08;;;;;;;;;;5029785;28;20041;-63
2021/11/05 05:18:19;;;;;;;129.98;35.13;;;;;;;;;;5029257;28;20037;-64
2021/11/05 05:20:45;;;;;;;139.40;38.67;;;;;;;;;;5029508;28;20018;-64
2021/11/05 05:23:11;;;;;;;108.78;33.33;;;;;;;;;;5029556;28;20025;-63
2021/11/05 05:25:36;;;;;;;110.63;31.35;;;;;;;;;;5029899;28;20393;-64
2021/11/05 05:28:03;;;;;;;108.47;33.15;;;;;;;;;;5029449;28;20474;-63
2021/11/05 05:30:28;;;;;;;121.40;32.92;;;;;;;;;;5030122;28;20025;-63
2021/11/05 05:32:53;;;;;;;124.85;36.67;;;;;;;;;;5032685;28;20029;-66
2021/11/05 05:35:19;;;;;;;113.47;34.38;;;;;;;;;;5034054;28;20076;-63
2021/11/05 05:37:44;;;;;;;111.95;30.45;;;;;;;;;;5033030;28;20096;-63
2021/11/05 05:40:10;;;;;;;115.45;32.67;;;;;;;;;;5033828;28;20025;-65
2021/11/05 05:42:36;;;;;;;103.30;30.58;;;;;;;;;;5033084;28;20017;-66
2021/11/05 05:45:01;;;;;;;104.35;30.25;;;;;;;;;;5032132;28;20017;-63
2021/11/05 05:47:26;;;;;;;102.95;30.88;;;;;;;;;;5033385;28;20025;-63
2021/11/05 05:49:52;;;;;;;98.80;29.42;;;;;;;;;;5033399;28;20087;-63
2021/11/05 05:52:17;;;;;;;95.82;29.08;;;;;;;;;;5033419;28;20022;-64
2021/11/05 05:54:42;;;;;;;99.47;31.70;;;;;;;;;;5032712;28;20044;-65
2021/11/05 05:57:07;;;;;;;98.80;29.48;;;;;;;;;;5033450;28;20032;-63
2021/11/05 05:59:33;;;;;;;93.28;30.05;;;;;;;;;;5032884;28;20028;-63
2021/11/05 06:01:58;;;;;;;78.80;27.33;;;;;;;;;;5032865;28;20120;-65
2021/11/05 06:04:26;;;;;;;87.53;28.20;;;;;;;;;;5033188;28;20040;-64
2021/11/05 06:06:51;;;;;;;91.22;29.00;;;;;;;;;;5032949;28;20627;-64
2021/11/05 06:09:16;;;;;;;92.55;28.42;;;;;;;;;;5033349;28;20028;-66
2021/11/05 06:11:41;;;;;;;96.25;32.08;;;;;;;;;;5033351;28;20034;-64
2021/11/05 06:14:07;;;;;;;89.45;30.52;;;;;;;;;;5032553;28;20014;-67
2021/11/05 06:16:32;;;;;;;86.70;28.55;;;;;;;;;;5032998;28;20036;-66
2021/11/05 06:18:57;;;;;;;94.40;32.67;;;;;;;;;;5032706;28;20530;-63
2021/11/05 06:21:24;;;;;;;84.85;26.63;;;;;;;;;;5032909;28;20029;-65
2021/11/05 06:23:50;;;;;;;89.65;30.48;;;;;;;;;;5029534;28;20013;-63
2021/11/05 06:26:15;;;;;;;77.38;25.90;;;;;;;;;;5027418;28;20196;-64
2021/11/05 06:28:41;;;;;;;76.28;27.40;;;;;;;;;;5030566;28;20115;-65
2021/11/05 06:31:06;;;;;;;82.22;28.00;;;;;;;;;;5030680;28;20029;-64
2021/11/05 06:33:31;;;;;;;81.15;27.75;;;;;;;;;;5030614;28;20021;-64
2021/11/05 06:35:56;;;;;;;74.30;27.38;;;;;;;;;;5029831;28;20029;-63
2021/11/05 06:38:21;;;;;;;78.50;26.50;;;;;;;;;;5030879;28;20789;-63
2021/11/05 06:40:47;;;;;;;76.22;26.25;;;;;;;;;;5029992;28;20032;-64
2021/11/05 06:43:12;;;;;;;75.28;24.55;;;;;;;;;;5029766;28;20021;-63
2021/11/05 06:45:37;;;;;;;77.32;27.35;;;;;;;;;;5030642;28;20026;-64
2021/11/05 06:48:03;;;;;;;79.13;25.90;;;;;;;;;;5027736;28;20706;-64
2021/11/05 06:50:28;;;;;;;80.53;27.23;;;;;;;;;;5030167;28;20303;-66
2021/11/05 06:52:53;;;;;;;72.22;24.85;;;;;;;;;;5029560;28;20497;-64
2021/11/05 06:55:18;;;;;;;71.57;25.58;;;;;;;;;;5050792;22;20042;-71
2021/11/05 06:57:43;;;;;;;78.95;27.65;;;;;;;;;;5025298;28;20045;-73
2021/11/05 07:00:11;;;;;;;81.80;26.98;;;;;;;;;;5028983;28;20014;-71
2021/11/05 07:02:42;;;;;;;76.25;24.50;;;;;;;;;;5029809;28;20026;-69
2021/11/05 07:05:08;;;;;;;80.00;27.58;;;;;;;;;;5022909;28;20025;-71
2021/11/05 07:07:33;;;;;;;81.82;26.48;;;;;;;;;;5008214;28;20057;-70
2021/11/05 07:09:58;;;;;;;67.07;25.77;;;;;;;;;;5008174;28;20482;-69
2021/11/05 07:12:23;;;;;;;75.35;25.55;;;;;;;;;;5006086;28;20062;-69
2021/11/05 07:14:49;;;;;;;69.85;24.08;;;;;;;;;;5009869;28;20064;-71
2021/11/05 07:17:14;;;;;;;66.22;25.75;;;;;;;;;;5011568;28;20026;-69
2021/11/05 07:19:39;;;;;;;64.15;25.42;;;;;;;;;;5011929;28;20441;-71
2021/11/05 07:22:04;;;;;;;70.20;27.35;;;;;;;;;;5011468;28;20470;-69
2021/11/05 07:24:31;;;;;;;73.03;27.02;;;;;;;;;;5016417;28;20014;-69
2021/11/05 07:26:56;;;;;;;64.75;27.20;;;;;;;;;;5011864;28;20065;-69
2021/11/05 07:29:27;;;;;;;64.55;23.92;;;;;;;;;;5011924;28;20049;-71
2021/11/05 07:31:54;;;;;;;63.00;26.30;;;;;;;;;;5009638;28;20026;-69
2021/11/05 07:34:19;;;;;;;68.97;26.60;;;;;;;;;;5011708;28;20018;-72
2021/11/05 07:36:45;;;;;;;66.65;26.50;;;;;;;;;;5006861;28;20029;-69
2021/11/05 07:39:10;;;;;;;72.60;26.05;;;;;;;;;;5010233;28;20029;-70
2021/11/05 07:41:35;;;;;;;84.13;31.35;;;;;;;;;;5011852;28;20034;-69
2021/11/05 07:44:01;;;;;;;87.30;31.77;;;;;;;;;;5011088;28;20022;-69
2021/11/05 07:46:27;;;;;;;94.20;35.95;;;;;;;;;;5011530;28;20492;-69
2021/11/05 07:48:52;;;;;;;95.15;37.17;;;;;;;;;;5009689;28;20014;-71
2021/11/05 07:51:17;;;;;;;90.45;34.22;;;;;;;;;;5011421;28;20405;-69
2021/11/05 07:53:42;;;;;;;95.30;36.40;;;;;;;;;;5011067;28;20543;-70
2021/11/05 07:56:08;;;;;;;77.22;33.30;;;;;;;;;;5009997;28;20018;-69
2021/11/05 07:58:33;;;;;;;91.15;32.55;;;;;;;;;;5011940;28;20166;-69
2021/11/05 08:00:58;;;;;;;82.35;30.85;;;;;;;;;;5011746;28;20018;-69
2021/11/05 08:03:23;;;;;;;85.85;34.30;;;;;;;;;;5010885;28;20026;-69
2021/11/05 08:05:49;;;;;;;75.18;31.33;;;;;;;;;;5010957;28;20026;-72
2021/11/05 08:08:14;;;;;;;80.57;32.10;;;;;;;;;;5014089;28;20483;-69
2021/11/05 08:10:40;;;;;;;88.60;37.13;;;;;;;;;;5008364;28;20109;-71
2021/11/05 08:13:05;;;;;;;79.60;33.85;;;;;;;;;;5010240;28;20044;-69
2021/11/05 08:15:31;;;;;;;89.15;34.38;;;;;;;;;;5011134;28;20029;-72
2021/11/05 08:17:56;;;;;;;82.95;32.55;;;;;;;;;;5011795;28;20698;-69
2021/11/05 08:20:21;;;;;;;72.85;31.58;;;;;;;;;;5011475;28;20088;-72
2021/11/05 08:22:47;;;;;;;88.82;34.58;;;;;;;;;;5010510;28;20030;-69
2021/11/05 08:25:13;;;;;;;78.75;33.40;;;;;;;;;;5000427;28;20040;-72
2021/11/05 08:27:38;;;;;;;77.00;32.38;;;;;;;;;;5010969;28;20026;-69
2021/11/05 08:30:08;;;;;;;76.68;35.35;;;;;;;;;;5008412;28;20033;-69
2021/11/05 08:32:33;;;;;;;83.30;32.67;;;;;;;;;;5010986;28;20363;-69
2021/11/05 08:34:58;;;;;;;75.28;33.03;;;;;;;;;;5010641;28;20040;-69
2021/11/05 08:37:23;;;;;;;80.63;34.05;;;;;;;;;;5011030;28;20053;-69
2021/11/05 08:39:48;;;;;;;76.45;33.03;;;;;;;;;;5010759;28;20121;-69
2021/11/05 08:42:14;;;;;;;90.78;36.72;;;;;;;;;;5010048;28;20048;-69
2021/11/05 08:44:39;;;;;;;96.15;36.67;;;;;;;;;;5010578;28;20018;-69
2021/11/05 08:47:04;;;;;;;92.40;36.10;;;;;;;;;;5010854;28;20474;-72
2021/11/05 08:49:29;;;;;;;86.78;33.00;;;;;;;;;;5010793;28;20034;-69
2021/11/05 08:51:55;;;;;;;91.72;37.95;;;;;;;;;;5010593;28;20037;-70
2021/11/05 08:54:20;;;;;;;90.13;35.85;;;;;;;;;;5010368;28;20057;-70
2021/11/05 08:56:45;;;;;;;97.32;34.03;;;;;;;;;;5010414;28;20064;-69
2021/11/05 08:59:12;;;;;;;88.40;34.83;;;;;;;;;;5010331;28;20067;-70
2021/11/05 09:01:37;;;;;;;81.97;30.88;;;;;;;;;;5010157;28;20025;-70
2021/11/05 09:04:02;;;;;;;85.97;33.67;;;;;;;;;;5010287;28;20017;-69
2021/11/05 09:06:27;;;;;;;81.45;33.75;;;;;;;;;;5009954;28;20421;-69
2021/11/05 09:08:55;;;;;;;97.03;38.25;;;;;;;;;;5010407;28;20028;-71
2021/11/05 09:11:20;;;;;;;87.18;36.40;;;;;;;;;;4994377;28;20557;-69
2021/11/05 09:13:45;;;;;;;108.45;38.72;;;;;;;;;;5004412;28;20049;-72
2021/11/05 09:16:11;;;;;;;104.95;37.38;;;;;;;;;;5010048;28;20479;-69
2021/11/05 09:18:36;;;;;;;107.35;39.53;;;;;;;;;;5010596;28;20034;-72
2021/11/05 09:21:04;;;;;;;110.55;36.85;;;;;;;;;;5010193;28;20026;-69
2021/11/05 09:23:30;;;;;;;95.38;38.10;;;;;;;;;;4998087;28;20476;-69
2021/11/05 09:25:55;;;;;;;103.25;37.97;;;;;;;;;;5010346;28;20022;-70
2021/11/05 09:28:21;;;;;;;102.65;37.22;;;;;;;;;;5010189;28;20037;-69
2021/11/05 09:30:46;;;;;;;98.60;38.03;;;;;;;;;;5009949;28;20029;-68
2021/11/05 09:33:12;;;;;;;101.18;42.47;;;;;;;;;;5009802;28;20018;-68
2021/11/05 09:35:38;;;;;;;104.03;39.63;;;;;;;;;;5010509;28;20096;-68
2021/11/05 09:38:03;;;;;;;88.72;35.45;;;;;;;;;;5010101;28;20423;-69
2021/11/05 09:40:28;;;;;;;92.50;34.92;;;;;;;;;;5010578;28;20101;-68
2021/11/05 09:42:54;;;;;;;89.30;33.60;;;;;;;;;;5009648;28;20029;-69
2021/11/05 09:45:20;;;;;;;90.47;35.10;;;;;;;;;;5010085;28;20014;-69
2021/11/05 09:47:45;;;;;;;88.97;32.50;;;;;;;;;;5010097;28;20046;-69
2021/11/05 09:50:12;;;;;;;84.93;35.17;;;;;;;;;;5010227;28;20022;-69
2021/11/05 09:52:39;;;;;;;86.45;32.45;;;;;;;;;;5010556;28;20544;-69
2021/11/05 09:55:05;;;;;;;80.93;33.38;;;;;;;;;;5009661;28;20084;-69
2021/11/05 09:57:30;;;;;;;73.55;30.15;;;;;;;;;;5009925;28;20479;-69
2021/11/05 09:59:58;;;;;;;79.15;32.20;;;;;;;;;;5009604;28;20105;-69
2021/11/05 10:02:24;;;;;;;92.22;36.78;;;;;;;;;;5012109;28;20025;-69
2021/11/05 10:04:50;;;;;;;88.68;35.00;;;;;;;;;;5009470;28;20025;-72
2021/11/05 10:07:15;;;;;;;82.53;30.95;;;;;;;;;;5009455;28;20026;-69
2021/11/05 10:09:42;;;;;;;79.25;32.45;;;;;;;;;;5008907;28;20441;-69
2021/11/05 10:12:08;;;;;;;78.28;32.38;;;;;;;;;;5008980;28;20038;-69
2021/11/05 10:14:33;;;;;;;70.82;29.58;;;;;;;;;;5009309;28;20026;-69
2021/11/05 10:16:59;;;;;;;88.88;35.05;;;;;;;;;;5009611;28;20108;-69
2021/11/05 10:19:24;;;;;;;76.47;33.65;;;;;;;;;;5013503;28;20026;-69
2021/11/05 10:21:49;;;;;;;84.90;33.63;;;;;;;;;;5013172;28;20032;-72
2021/11/05 10:24:18;;;;;;;80.57;33.10;;;;;;;;;;5013266;28;20158;-69
2021/11/05 10:26:44;;;;;;;78.72;33.47;;;;;;;;;;5012758;28;20284;-71
2021/11/05 10:29:24;;;;;;;76.85;32.30;;;;;;;;;;5013427;28;20026;-70
2021/11/05 10:31:58;;;;;;;85.63;31.73;;;;;;;;;;5012999;28;20025;-69
2021/11/05 10:34:23;;;;;;;66.95;30.00;;;;;;;;;;5013195;28;20058;-69
2021/11/05 10:36:50;;;;;;;81.57;33.65;;;;;;;;;;5013268;28;20033;-69
2021/11/05 10:39:17;;;;;;;78.85;32.33;;;;;;;;;;5013460;28;20100;-69
2021/11/05 10:41:42;;;;;;;87.90;33.78;;;;;;;;;;5012875;28;20032;-69
2021/11/05 10:44:14;;;;;;;89.45;33.92;;;;;;;;;;5012509;28;20014;-69
2021/11/05 10:46:40;;;;;;;81.47;30.33;;;;;;;;;;5009394;28;20026;-70
2021/11/05 10:49:06;;;;;;;83.40;31.65;;;;;;;;;;5010851;28;20112;-70
2021/11/05 10:51:32;;;;;;;84.25;32.80;;;;;;;;;;5012928;28;20097;-72
2021/11/05 10:53:58;;;;;;;90.15;35.15;;;;;;;;;;5012174;28;20036;-69
2021/11/05 10:56:24;;;;;;;78.80;32.25;;;;;;;;;;5010697;28;20025;-69
2021/11/05 10:58:49;;;;;;;95.03;34.83;;;;;;;;;;5020290;28;20501;-69
2021/11/05 11:01:16;;;;;;;76.57;32.03;;;;;;;;;;5012986;28;20022;-69
2021/11/05 11:03:45;;;;;;;73.88;33.63;;;;;;;;;;5011278;28;20265;-71
2021/11/05 11:06:12;;;;;;;69.55;30.45;;;;;;;;;;5010784;28;20105;-69
2021/11/05 11:08:38;;;;;;;70.95;32.65;;;;;;;;;;5011779;28;20490;-70
2021/11/05 11:11:17;;;;;;;71.88;33.67;;;;;;;;;;5011945;28;20685;-69
2021/11/05 11:13:43;;;;;;;61.05;27.77;;;;;;;;;;5010872;28;20557;-69
2021/11/05 11:16:09;;;;;;;74.50;26.60;;;;;;;;;;5011092;28;20109;-69
2021/11/05 11:18:48;;;;;;;66.97;29.00;;;;;;;;;;5012449;28;20013;-69
2021/11/05 11:21:13;;;;;;;73.75;31.17;;;;;;;;;;5012767;28;20653;-71
2021/11/05 11:23:39;;;;;;;67.28;29.50;;;;;;;;;;5016140;28;20018;-68
2021/11/05 11:26:04;;;;;;;68.18;29.67;;;;;;;;;;5011786;28;20385;-69
2021/11/05 11:28:29;;;;;;;70.40;30.08;;;;;;;;;;5012249;28;20026;-72
2021/11/05 11:30:55;;;;;;;61.47;28.35;;;;;;;;;;5011275;28;20398;-69
2021/11/05 11:33:21;;;;;;;62.90;29.08;;;;;;;;;;5012971;28;20112;-71
2021/11/05 11:35:46;;;;;;;65.00;29.95;;;;;;;;;;5010846;28;20128;-72
2021/11/05 11:38:13;;;;;;;66.90;28.30;;;;;;;;;;5011936;28;20065;-69
2021/11/05 11:40:39;;;;;;;63.75;29.02;;;;;;;;;;5011458;28;20451;-72
2021/11/05 11:43:04;;;;;;;63.20;27.73;;;;;;;;;;5011401;28;20584;-69
2021/11/05 11:45:30;;;;;;;60.47;27.42;;;;;;;;;;5011479;28;20065;-69
2021/11/05 11:47:57;;;;;;;64.00;27.83;;;;;;;;;;5011307;28;20025;-69
2021/11/05 11:50:24;;;;;;;59.60;26.35;;;;;;;;;;5012210;28;20026;-72
2021/11/05 11:52:57;;;;;;;62.03;27.75;;;;;;;;;;5011140;28;20101;-69
2021/11/05 11:55:23;;;;;;;56.38;26.73;;;;;;;;;;5011335;28;20113;-72
2021/11/05 11:57:48;;;;;;;61.42;26.83;;;;;;;;;;5011293;28;20140;-69
2021/11/05 12:00:18;;;;;;;66.28;24.45;;;;;;;;;;5011288;28;20096;-69
2021/11/05 12:02:44;;;;;;;45.60;23.92;;;;;;;;;;5011191;28;20034;-71
2021/11/05 12:05:24;;;;;;;44.35;21.75;;;;;;;;;;5011083;28;20041;-69
2021/11/05 12:08:07;;;;;;;48.30;19.60;;;;;;;;;;5011642;28;20414;-71
2021/11/05 12:10:33;;;;;;;41.80;19.77;;;;;;;;;;5010826;28;20026;-69
2021/11/05 12:12:58;;;;;;;55.58;19.80;;;;;;;;;;5010716;28;20033;-69
2021/11/05 12:15:23;;;;;;;41.60;19.05;;;;;;;;;;5010805;28;20038;-69
2021/11/05 12:17:48;;;;;;;33.88;14.13;;;;;;;;;;5010854;28;20022;-69
2021/11/05 12:20:34;;;;;;;33.73;14.23;;;;;;;;;;5011578;28;20022;-71
2021/11/05 12:23:09;;;;;;;29.17;12.63;;;;;;;;;;5001589;28;20304;-69
2021/11/05 12:26:01;;;;;;;23.58;12.18;;;;;;;;;;5010103;28;20528;-71
2021/11/05 12:28:26;;;;;;;27.30;12.18;;;;;;;;;;5007973;28;20446;-71
2021/11/05 12:30:53;;;;;;;22.75;12.25;;;;;;;;;;5010636;28;20045;-69
2021/11/05 12:33:25;;;;;;;35.30;13.02;;;;;;;;;;5010687;28;20026;-71
2021/11/05 12:35:52;;;;;;;37.53;14.20;;;;;;;;;;5009782;28;20391;-69
2021/11/05 12:38:17;;;;;;;40.17;17.40;;;;;;;;;;5010333;28;20014;-71
2021/11/05 12:40:45;;;;;;;29.15;14.35;;;;;;;;;;5010477;28;20017;-69
2021/11/05 12:43:22;;;;;;;27.38;11.98;;;;;;;;;;5010573;28;20060;-69
2021/11/05 12:45:54;;;;;;;31.00;13.07;;;;;;;;;;5010543;28;20024;-69
2021/11/05 12:48:47;;;;;;;31.80;16.13;;;;;;;;;;5010417;28;20028;-69
2021/11/05 12:51:20;;;;;;;43.95;19.63;;;;;;;;;;5010752;28;20095;-71
2021/11/05 12:53:54;;;;;;;46.63;19.33;;;;;;;;;;5008923;28;20556;-69
2021/11/05 12:56:21;;;;;;;44.95;20.13;;;;;;;;;;5010123;28;20119;-68
2021/11/05 12:58:46;;;;;;;40.05;19.52;;;;;;;;;;5010895;28;20033;-69
2021/11/05 13:01:12;;;;;;;40.63;19.92;;;;;;;;;;5010093;28;20030;-69
2021/11/05 13:03:39;;;;;;;33.80;17.60;;;;;;;;;;5010277;28;20022;-68
2021/11/05 13:06:04;;;;;;;48.58;20.13;;;;;;;;;;5010363;28;20104;-70
2021/11/05 13:08:33;;;;;;;37.25;17.98;;;;;;;;;;5010411;28;20100;-68
2021/11/05 13:11:05;;;;;;;32.60;15.25;;;;;;;;;;5009786;28;20022;-69
2021/11/05 13:13:31;;;;;;;32.60;13.60;;;;;;;;;;5010124;28;20033;-69
2021/11/05 13:15:56;;;;;;;26.08;11.10;;;;;;;;;;5008614;28;20030;-69
2021/11/05 13:18:22;;;;;;;24.40;12.48;;;;;;;;;;5007473;28;20014;-69
2021/11/05 13:20:48;;;;;;;25.33;10.50;;;;;;;;;;5009630;28;20474;-69
2021/11/05 13:23:14;;;;;;;23.52;11.77;;;;;;;;;;5009597;28;20010;-69
2021/11/05 13:25:43;;;;;;;22.98;10.48;;;;;;;;;;5008106;28;20030;-69
2021/11/05 13:28:16;;;;;;;24.00;11.10;;;;;;;;;;5009822;28;20072;-69
2021/11/05 13:30:46;;;;;;;24.30;11.52;;;;;;;;;;5010039;28;20053;-69
2021/11/05 13:33:12;;;;;;;30.47;12.10;;;;;;;;;;5015598;28;20032;-69
2021/11/05 13:35:51;;;;;;;22.83;9.55;;;;;;;;;;5014978;28;20105;-68
2021/11/05 13:38:21;;;;;;;30.63;11.23;;;;;;;;;;5003538;28;20014;-69
2021/11/05 13:40:54;;;;;;;28.30;13.45;;;;;;;;;;5006406;28;20453;-68
2021/11/05 13:43:21;;;;;;;32.40;12.25;;;;;;;;;;5009825;28;20049;-69
2021/11/05 13:45:50;;;;;;;25.73;11.27;;;;;;;;;;5010622;28;20036;-69
2021/11/05 13:48:17;;;;;;;27.83;10.82;;;;;;;;;;5010477;28;20010;-69
2021/11/05 13:50:42;;;;;;;23.60;11.68;;;;;;;;;;5010778;28;20018;-69
2021/11/05 13:53:08;;;;;;;23.73;12.65;;;;;;;;;;5011755;28;20021;-68
2021/11/05 13:55:38;;;;;;;25.42;12.48;;;;;;;;;;5013455;28;20029;-69
2021/11/05 13:58:04;;;;;;;22.67;11.32;;;;;;;;;;5011905;28;20443;-68
2021/11/05 14:00:35;;;;;;;26.15;10.77;;;;;;;;;;5012958;28;20030;-68
2021/11/05 14:03:00;;;;;;;19.92;10.38;;;;;;;;;;5013465;28;20105;-69
2021/11/05 14:05:26;;;;;;;17.48;8.02;;;;;;;;;;5013063;28;20468;-69
2021/11/05 14:08:07;;;;;;;18.35;8.43;;;;;;;;;;5013615;28;20022;-69
2021/11/05 14:10:45;;;;;;;22.23;9.50;;;;;;;;;;5013684;28;20061;-69